Time;durP1;ratioP1;P1;durP2;ratioP2;P2;SDS_P1;SDS_P2;PMS_P1;PMS_P2;Temp;Humidity;BMP_temperature;BMP_pressure;BME280_temperature;BME280_humidity;BME280_pressure;Samples;Min_cycle;Max_cycle;Signal;HPM_P1;HPM_P2
2022/06/25 00:01:25;;;;;;;0.70;0.70;;;;;;;;;;5067851;28;20437;-79
2022/06/25 00:03:53;;;;;;;0.70;0.60;;;;;;;;;;5072591;28;20491;-80
2022/06/25 00:06:20;;;;;;;0.70;0.60;;;;;;;;;;5071836;28;20806;-80
2022/06/25 00:08:53;;;;;;;0.70;0.60;;;;;;;;;;5073398;28;20475;-78
2022/06/25 00:14:07;;;;;;;0.90;0.90;;;;;;;;;;5053341;28;20974;-79
2022/06/25 00:16:34;;;;;;;0.70;0.60;;;;;;;;;;5056355;28;20435;-79
2022/06/25 00:19:01;;;;;;;0.70;0.60;;;;;;;;;;5051741;28;20456;-80
2022/06/25 00:21:28;;;;;;;0.70;0.70;;;;;;;;;;5056615;28;20463;-80
2022/06/25 00:23:54;;;;;;;0.70;0.63;;;;;;;;;;5053605;28;20485;-80
2022/06/25 00:26:21;;;;;;;1.30;1.20;;;;;;;;;;5056348;28;20441;-79
2022/06/25 00:28:48;;;;;;;0.70;0.70;;;;;;;;;;5039083;28;20459;-80
2022/06/25 00:31:19;;;;;;;0.90;0.90;;;;;;;;;;5053245;28;21045;-79
2022/06/25 00:33:46;;;;;;;0.70;0.60;;;;;;;;;;5066722;28;20480;-78
2022/06/25 00:36:13;;;;;;;0.70;0.70;;;;;;;;;;5071310;28;20460;-80
2022/06/25 00:38:41;;;;;;;0.70;0.60;;;;;;;;;;5068409;28;20784;-79
2022/06/25 00:41:10;;;;;;;0.70;0.60;;;;;;;;;;5051891;28;20946;-80
2022/06/25 00:43:38;;;;;;;0.70;0.63;;;;;;;;;;5054028;28;20834;-80
2022/06/25 00:46:06;;;;;;;1.43;0.90;;;;;;;;;;5052669;28;20449;-80
2022/06/25 00:48:34;;;;;;;0.70;0.70;;;;;;;;;;5052506;28;20424;-80
2022/06/25 00:51:05;;;;;;;0.70;0.60;;;;;;;;;;5053069;28;20510;-79
2022/06/25 00:53:33;;;;;;;0.70;0.60;;;;;;;;;;5034285;28;20441;-80
2022/06/25 00:56:04;;;;;;;0.70;0.60;;;;;;;;;;5051746;28;20448;-79
2022/06/25 00:58:33;;;;;;;0.70;0.63;;;;;;;;;;5056488;28;20844;-79
2022/06/25 01:01:00;;;;;;;1.00;0.90;;;;;;;;;;5055704;28;20489;-80
2022/06/25 01:03:30;;;;;;;0.70;0.70;;;;;;;;;;5055030;28;20437;-80
2022/06/25 01:05:59;;;;;;;0.80;0.80;;;;;;;;;;5054071;28;20511;-80
2022/06/25 01:08:27;;;;;;;0.70;0.60;;;;;;;;;;5073309;28;20408;-79
2022/06/25 01:10:57;;;;;;;0.70;0.60;;;;;;;;;;5071200;28;21011;-79
2022/06/25 01:13:25;;;;;;;0.70;0.67;;;;;;;;;;5070696;28;20449;-80
2022/06/25 01:15:53;;;;;;;0.70;0.70;;;;;;;;;;5066871;28;20540;-79
2022/06/25 01:18:25;;;;;;;0.90;0.83;;;;;;;;;;5068562;28;20473;-80
2022/06/25 01:20:56;;;;;;;0.70;0.70;;;;;;;;;;5072482;28;20801;-80
2022/06/25 01:23:29;;;;;;;0.70;0.70;;;;;;;;;;5069842;28;21018;-79
2022/06/25 01:25:57;;;;;;;0.70;0.70;;;;;;;;;;5038258;28;20962;-80
2022/06/25 01:28:30;;;;;;;0.70;0.60;;;;;;;;;;5037121;28;20441;-81
2022/06/25 01:31:00;;;;;;;1.23;1.13;;;;;;;;;;5051481;28;20461;-79
2022/06/25 01:33:30;;;;;;;0.70;0.60;;;;;;;;;;5053515;28;20460;-80
2022/06/25 01:36:00;;;;;;;0.70;0.70;;;;;;;;;;5037168;28;20921;-80
2022/06/25 01:38:29;;;;;;;0.70;0.60;;;;;;;;;;5051417;28;20452;-80
2022/06/25 01:41:01;;;;;;;0.70;0.70;;;;;;;;;;5051800;28;20454;-80
2022/06/25 01:43:31;;;;;;;0.70;0.60;;;;;;;;;;5067801;28;20449;-79
2022/06/25 01:45:59;;;;;;;0.70;0.63;;;;;;;;;;5043415;28;20458;-79
2022/06/25 01:48:29;;;;;;;0.80;0.73;;;;;;;;;;5072020;28;20431;-80
2022/06/25 01:50:58;;;;;;;0.70;0.67;;;;;;;;;;5070645;28;20477;-79
2022/06/25 01:53:28;;;;;;;0.70;0.60;;;;;;;;;;5071000;28;20488;-79
2022/06/25 01:56:02;;;;;;;0.70;0.60;;;;;;;;;;5067953;28;20447;-80
2022/06/25 01:58:30;;;;;;;0.70;0.60;;;;;;;;;;5052383;28;20442;-79
2022/06/25 02:00:58;;;;;;;0.70;0.60;;;;;;;;;;5051835;28;20858;-79
2022/06/25 02:03:25;;;;;;;0.70;0.60;;;;;;;;;;5066709;28;20545;-78
2022/06/25 02:05:59;;;;;;;0.70;0.67;;;;;;;;;;5072814;28;20456;-79
2022/06/25 02:08:29;;;;;;;0.70;0.70;;;;;;;;;;5074547;28;20841;-79
2022/06/25 02:10:59;;;;;;;0.70;0.67;;;;;;;;;;5075345;28;20940;-79
2022/06/25 02:13:26;;;;;;;0.70;0.70;;;;;;;;;;5061702;28;20438;-80
2022/06/25 02:15:55;;;;;;;0.70;0.60;;;;;;;;;;5057061;28;20422;-79
2022/06/25 02:18:23;;;;;;;0.70;0.67;;;;;;;;;;5055415;28;20492;-79
2022/06/25 02:20:50;;;;;;;0.70;0.60;;;;;;;;;;5038348;28;20456;-79
2022/06/25 02:23:19;;;;;;;0.70;0.60;;;;;;;;;;5065809;28;20942;-79
2022/06/25 02:25:46;;;;;;;0.70;0.60;;;;;;;;;;5074614;28;20461;-79
2022/06/25 02:28:15;;;;;;;0.70;0.70;;;;;;;;;;5076326;28;20448;-79
2022/06/25 02:30:45;;;;;;;0.70;0.60;;;;;;;;;;5074716;28;20456;-79
2022/06/25 02:33:12;;;;;;;0.70;0.70;;;;;;;;;;5058407;28;20508;-79
2022/06/25 02:35:42;;;;;;;0.70;0.60;;;;;;;;;;5077052;28;20423;-79
2022/06/25 02:38:12;;;;;;;0.70;0.70;;;;;;;;;;5074177;28;20509;-79
2022/06/25 02:40:41;;;;;;;0.70;0.60;;;;;;;;;;5074411;28;20473;-79
2022/06/25 02:43:08;;;;;;;0.70;0.70;;;;;;;;;;5067815;28;20937;-79
2022/06/25 02:45:41;;;;;;;2.80;2.20;;;;;;;;;;5054699;28;20451;-79
2022/06/25 02:48:10;;;;;;;0.70;0.70;;;;;;;;;;5055453;28;20944;-78
2022/06/25 02:50:39;;;;;;;0.90;0.90;;;;;;;;;;5037302;28;20896;-79
2022/06/25 02:53:08;;;;;;;0.70;0.70;;;;;;;;;;5038529;28;20504;-80
2022/06/25 03:01:10;;;;;;;0.70;0.70;;;;;;;;;;5057952;28;20842;-78
2022/06/25 03:03:38;;;;;;;0.70;0.70;;;;;;;;;;5056782;28;20397;-80
2022/06/25 03:06:05;;;;;;;0.90;0.90;;;;;;;;;;5074546;28;20471;-80
2022/06/25 03:08:32;;;;;;;0.70;0.60;;;;;;;;;;5066167;28;20434;-79
2022/06/25 03:10:59;;;;;;;0.70;0.70;;;;;;;;;;5055400;28;20972;-79
2022/06/25 03:13:28;;;;;;;1.00;0.90;;;;;;;;;;5063885;28;20478;-79
2022/06/25 03:15:56;;;;;;;0.70;0.70;;;;;;;;;;5053372;28;20448;-79
2022/06/25 03:18:24;;;;;;;0.70;0.60;;;;;;;;;;5053339;28;20447;-79
2022/06/25 03:21:07;;;;;;;0.70;0.60;;;;;;;;;;5056031;28;20538;-79
2022/06/25 03:23:35;;;;;;;0.80;0.80;;;;;;;;;;5055649;28;20439;-79
2022/06/25 03:26:03;;;;;;;0.70;0.70;;;;;;;;;;5053126;28;20475;-79
2022/06/25 03:28:30;;;;;;;0.70;0.70;;;;;;;;;;5052842;28;20447;-79
2022/06/25 03:31:00;;;;;;;0.90;0.80;;;;;;;;;;5054703;28;21003;-80
2022/06/25 03:33:31;;;;;;;0.70;0.70;;;;;;;;;;5054729;28;20411;-79
2022/06/25 03:36:06;;;;;;;0.80;0.80;;;;;;;;;;5059210;28;20468;-79
2022/06/25 03:38:40;;;;;;;0.70;0.60;;;;;;;;;;5073487;28;20715;-79
2022/06/25 03:44:00;;;;;;;0.63;0.60;;;;;;;;;;5063149;28;20445;-79
2022/06/25 03:46:26;;;;;;;0.70;0.70;;;;;;;;;;5053171;28;20451;-79
2022/06/25 03:48:55;;;;;;;1.43;1.33;;;;;;;;;;5070916;28;20452;-78
2022/06/25 03:51:31;;;;;;;0.70;0.70;;;;;;;;;;5073419;28;20493;-80
2022/06/25 03:53:58;;;;;;;0.70;0.60;;;;;;;;;;5056292;28;20451;-79
2022/06/25 03:56:25;;;;;;;0.90;0.90;;;;;;;;;;5036871;28;20885;-78
2022/06/25 03:58:53;;;;;;;0.70;0.60;;;;;;;;;;5037276;28;20441;-79
2022/06/25 04:01:23;;;;;;;0.70;0.67;;;;;;;;;;5053814;28;20448;-79
2022/06/25 04:03:50;;;;;;;1.30;0.90;;;;;;;;;;5053574;28;20472;-79
2022/06/25 04:06:19;;;;;;;0.70;0.60;;;;;;;;;;5058012;28;20957;-78
2022/06/25 04:08:48;;;;;;;0.70;0.60;;;;;;;;;;5055075;28;20457;-78
2022/06/25 04:11:16;;;;;;;0.70;0.60;;;;;;;;;;5072780;28;20456;-79
2022/06/25 04:13:48;;;;;;;0.70;0.70;;;;;;;;;;5056923;28;20445;-79
2022/06/25 04:16:15;;;;;;;0.70;0.60;;;;;;;;;;5073153;28;20467;-77
2022/06/25 04:18:43;;;;;;;0.70;0.60;;;;;;;;;;5073138;28;20458;-79
2022/06/25 04:21:11;;;;;;;0.70;0.70;;;;;;;;;;5068779;28;20461;-79
2022/06/25 04:23:42;;;;;;;0.80;0.80;;;;;;;;;;5052614;28;20462;-78
2022/06/25 04:26:15;;;;;;;0.60;0.60;;;;;;;;;;5068177;28;20464;-79
2022/06/25 04:31:38;;;;;;;0.67;0.60;;;;;;;;;;5051915;28;20465;-78
2022/06/25 04:34:10;;;;;;;0.70;0.70;;;;;;;;;;5053198;28;20447;-78
2022/06/25 04:36:38;;;;;;;0.70;0.67;;;;;;;;;;5059265;28;20561;-79
2022/06/25 04:39:16;;;;;;;0.70;0.70;;;;;;;;;;5051788;28;20439;-79
2022/06/25 04:41:45;;;;;;;0.73;0.70;;;;;;;;;;5052288;28;20465;-80
2022/06/25 04:44:19;;;;;;;0.70;0.70;;;;;;;;;;5067684;28;20839;-79
2022/06/25 04:46:46;;;;;;;0.70;0.60;;;;;;;;;;5068902;28;20490;-79
2022/06/25 04:49:15;;;;;;;0.90;0.87;;;;;;;;;;5052863;28;20839;-79
2022/06/25 04:51:45;;;;;;;1.30;1.20;;;;;;;;;;5067700;28;20473;-79
2022/06/25 04:54:14;;;;;;;0.97;0.90;;;;;;;;;;5071579;28;20433;-80
2022/06/25 04:56:48;;;;;;;0.70;0.70;;;;;;;;;;5071823;28;20443;-79
2022/06/25 04:59:18;;;;;;;0.70;0.60;;;;;;;;;;5072206;28;20422;-79
2022/06/25 05:02:09;;;;;;;0.80;0.80;;;;;;;;;;5055523;28;20457;-79
2022/06/25 05:04:44;;;;;;;0.70;0.60;;;;;;;;;;5051490;28;20426;-80
2022/06/25 05:07:11;;;;;;;0.70;0.67;;;;;;;;;;5061080;28;20471;-78
2022/06/25 05:09:38;;;;;;;0.70;0.70;;;;;;;;;;5067334;28;20446;-79
2022/06/25 05:12:07;;;;;;;0.70;0.70;;;;;;;;;;5051949;28;20473;-78
2022/06/25 05:14:37;;;;;;;0.70;0.63;;;;;;;;;;5057195;28;20461;-78
2022/06/25 05:17:04;;;;;;;1.30;1.20;;;;;;;;;;5055863;28;20867;-79
2022/06/25 05:19:35;;;;;;;0.70;0.70;;;;;;;;;;5071890;28;20549;-78
2022/06/25 05:22:01;;;;;;;0.70;0.60;;;;;;;;;;5070654;28;20537;-78
2022/06/25 05:24:28;;;;;;;0.70;0.70;;;;;;;;;;5071747;28;20806;-78
2022/06/25 05:26:55;;;;;;;1.20;1.10;;;;;;;;;;5072277;28;20478;-79
2022/06/25 05:29:23;;;;;;;0.90;0.80;;;;;;;;;;5072165;28;20465;-78
2022/06/25 05:31:55;;;;;;;0.70;0.70;;;;;;;;;;5052432;28;20473;-77
2022/06/25 05:34:22;;;;;;;0.70;0.67;;;;;;;;;;5071023;28;20482;-78
2022/06/25 05:36:48;;;;;;;0.70;0.70;;;;;;;;;;5071438;28;20466;-77
2022/06/25 05:39:15;;;;;;;0.70;0.60;;;;;;;;;;5071256;28;20950;-78
2022/06/25 05:41:42;;;;;;;0.70;0.70;;;;;;;;;;5069687;28;20518;-78
2022/06/25 05:44:09;;;;;;;0.70;0.60;;;;;;;;;;5055906;28;20454;-77
2022/06/25 05:46:40;;;;;;;0.70;0.70;;;;;;;;;;5068260;28;20434;-77
2022/06/25 05:49:06;;;;;;;0.70;0.60;;;;;;;;;;5076290;28;20415;-77
2022/06/25 05:51:33;;;;;;;0.70;0.70;;;;;;;;;;5067129;28;20483;-77
2022/06/25 05:54:01;;;;;;;0.70;0.60;;;;;;;;;;5055634;28;20427;-77
2022/06/25 05:56:28;;;;;;;0.70;0.60;;;;;;;;;;5055614;28;20842;-76
2022/06/25 05:58:55;;;;;;;0.77;0.67;;;;;;;;;;5056284;28;20519;-77
2022/06/25 06:01:23;;;;;;;0.70;0.60;;;;;;;;;;5055893;28;20427;-77
2022/06/25 06:03:53;;;;;;;0.70;0.70;;;;;;;;;;5056942;28;20523;-77
2022/06/25 06:06:20;;;;;;;0.70;0.70;;;;;;;;;;5061391;28;20459;-76
2022/06/25 06:08:47;;;;;;;0.97;0.80;;;;;;;;;;5068338;28;20802;-78
2022/06/25 06:11:14;;;;;;;0.70;0.70;;;;;;;;;;5056278;28;20436;-75
2022/06/25 06:13:41;;;;;;;0.80;0.77;;;;;;;;;;5072524;28;20787;-76
2022/06/25 06:16:08;;;;;;;0.70;0.70;;;;;;;;;;5072734;28;20863;-76
2022/06/25 06:18:35;;;;;;;1.03;0.90;;;;;;;;;;5056603;28;20530;-76
2022/06/25 06:21:03;;;;;;;0.93;0.77;;;;;;;;;;5056192;28;20488;-77
2022/06/25 06:23:30;;;;;;;0.80;0.73;;;;;;;;;;5056918;28;20900;-77
2022/06/25 06:25:56;;;;;;;0.70;0.63;;;;;;;;;;5055373;28;20478;-76
2022/06/25 06:28:23;;;;;;;0.80;0.80;;;;;;;;;;5054382;28;20409;-76
2022/06/25 06:30:51;;;;;;;0.80;0.70;;;;;;;;;;5074359;28;20427;-77
2022/06/25 06:33:18;;;;;;;0.70;0.60;;;;;;;;;;5074807;28;20565;-76
2022/06/25 06:35:44;;;;;;;0.70;0.70;;;;;;;;;;5058348;28;20435;-76
2022/06/25 06:38:12;;;;;;;0.80;0.70;;;;;;;;;;5058796;28;20873;-77
2022/06/25 06:40:39;;;;;;;0.70;0.60;;;;;;;;;;5056458;28;20457;-77
2022/06/25 06:43:06;;;;;;;0.70;0.70;;;;;;;;;;5055286;28;20413;-76
2022/06/25 06:45:32;;;;;;;1.00;0.93;;;;;;;;;;5068550;28;20445;-77
2022/06/25 06:47:59;;;;;;;0.90;0.90;;;;;;;;;;5074663;28;20447;-76
2022/06/25 06:50:27;;;;;;;0.70;0.70;;;;;;;;;;5057152;28;20970;-76
2022/06/25 06:52:54;;;;;;;0.90;0.90;;;;;;;;;;5057829;28;20470;-76
2022/06/25 06:55:22;;;;;;;0.77;0.77;;;;;;;;;;5074369;28;20474;-77
2022/06/25 06:57:49;;;;;;;0.70;0.70;;;;;;;;;;5075672;28;20435;-77
2022/06/25 07:00:19;;;;;;;0.80;0.70;;;;;;;;;;5076215;28;20443;-76
2022/06/25 07:02:47;;;;;;;0.80;0.80;;;;;;;;;;5068477;28;20443;-78
2022/06/25 07:05:14;;;;;;;0.70;0.70;;;;;;;;;;5057920;28;20466;-77
2022/06/25 07:07:41;;;;;;;0.70;0.60;;;;;;;;;;5054743;28;20467;-77
2022/06/25 07:10:08;;;;;;;0.80;0.63;;;;;;;;;;5075914;28;20416;-77
2022/06/25 07:12:36;;;;;;;0.70;0.63;;;;;;;;;;5055262;28;20447;-78
2022/06/25 07:15:04;;;;;;;0.70;0.70;;;;;;;;;;5076225;28;20423;-76
2022/06/25 07:17:31;;;;;;;0.80;0.70;;;;;;;;;;5075435;28;20447;-77
2022/06/25 07:19:59;;;;;;;1.03;0.90;;;;;;;;;;5071607;28;20418;-77
2022/06/25 07:22:25;;;;;;;0.70;0.60;;;;;;;;;;5058526;28;20447;-77
2022/06/25 07:24:52;;;;;;;0.70;0.60;;;;;;;;;;5076046;28;20485;-77
2022/06/25 07:27:19;;;;;;;0.70;0.60;;;;;;;;;;5073158;28;20428;-77
2022/06/25 07:29:47;;;;;;;1.30;1.20;;;;;;;;;;5056049;28;20431;-77
2022/06/25 07:32:17;;;;;;;0.70;0.70;;;;;;;;;;5073131;28;20433;-75
2022/06/25 07:34:44;;;;;;;0.70;0.60;;;;;;;;;;5076080;28;20475;-76
2022/06/25 07:37:12;;;;;;;0.80;0.70;;;;;;;;;;5075629;28;20558;-77
2022/06/25 07:39:39;;;;;;;1.10;1.00;;;;;;;;;;5072748;28;20424;-76
2022/06/25 07:42:06;;;;;;;0.70;0.70;;;;;;;;;;5072628;28;20443;-76
2022/06/25 07:44:33;;;;;;;0.80;0.73;;;;;;;;;;5074031;28;20461;-76
2022/06/25 07:47:02;;;;;;;0.80;0.70;;;;;;;;;;5053074;28;20453;-76
2022/06/25 07:49:29;;;;;;;0.70;0.60;;;;;;;;;;5070403;28;20501;-76
2022/06/25 07:51:56;;;;;;;0.70;0.70;;;;;;;;;;5056630;28;20597;-78
2022/06/25 07:54:23;;;;;;;0.70;0.60;;;;;;;;;;5056651;28;20417;-77
2022/06/25 07:56:50;;;;;;;0.70;0.60;;;;;;;;;;5064544;28;20769;-78
2022/06/25 07:59:17;;;;;;;0.80;0.70;;;;;;;;;;5062934;28;20443;-76
2022/06/25 08:01:45;;;;;;;0.70;0.60;;;;;;;;;;5054322;28;20749;-76
2022/06/25 08:04:13;;;;;;;0.70;0.70;;;;;;;;;;5053568;28;20420;-76
2022/06/25 08:06:43;;;;;;;0.70;0.70;;;;;;;;;;5069195;28;20795;-76
2022/06/25 08:09:10;;;;;;;0.70;0.60;;;;;;;;;;5059945;28;21038;-76
2022/06/25 08:11:44;;;;;;;0.70;0.60;;;;;;;;;;5065640;28;20456;-76
2022/06/25 08:14:11;;;;;;;0.80;0.70;;;;;;;;;;5054346;28;20467;-77
2022/06/25 08:16:40;;;;;;;0.70;0.60;;;;;;;;;;5053410;28;20987;-76
2022/06/25 08:19:10;;;;;;;0.80;0.70;;;;;;;;;;5055397;28;20409;-77
2022/06/25 08:21:41;;;;;;;1.40;1.30;;;;;;;;;;5054325;28;20979;-76
2022/06/25 08:24:08;;;;;;;0.80;0.70;;;;;;;;;;5054398;28;20427;-74
2022/06/25 08:26:35;;;;;;;0.97;0.87;;;;;;;;;;5060407;28;20398;-76
2022/06/25 08:29:02;;;;;;;0.80;0.73;;;;;;;;;;5073952;28;20431;-74
2022/06/25 08:31:29;;;;;;;0.80;0.80;;;;;;;;;;5072685;28;20471;-75
2022/06/25 08:33:56;;;;;;;0.70;0.60;;;;;;;;;;5055736;28;20462;-76
2022/06/25 08:36:23;;;;;;;0.70;0.60;;;;;;;;;;5071666;28;20512;-77
2022/06/25 08:38:52;;;;;;;0.77;0.63;;;;;;;;;;5071971;28;20510;-76
2022/06/25 08:41:19;;;;;;;0.80;0.70;;;;;;;;;;5059916;28;20455;-76
2022/06/25 08:43:46;;;;;;;0.80;0.70;;;;;;;;;;5054796;28;20432;-78
2022/06/25 08:46:14;;;;;;;0.90;0.70;;;;;;;;;;5054112;28;20475;-77
2022/06/25 08:48:48;;;;;;;0.70;0.60;;;;;;;;;;5036694;28;20455;-75
2022/06/25 08:51:15;;;;;;;0.80;0.70;;;;;;;;;;5066049;28;20474;-76
2022/06/25 08:53:42;;;;;;;0.70;0.70;;;;;;;;;;5072076;28;20485;-77
2022/06/25 08:56:12;;;;;;;0.70;0.63;;;;;;;;;;5072421;28;20527;-78
2022/06/25 08:58:42;;;;;;;0.70;0.60;;;;;;;;;;5065374;28;20442;-76
2022/06/25 09:01:09;;;;;;;0.70;0.70;;;;;;;;;;5063368;28;20432;-74
2022/06/25 09:03:39;;;;;;;0.80;0.70;;;;;;;;;;5055415;28;20770;-76
2022/06/25 09:06:13;;;;;;;0.70;0.70;;;;;;;;;;5054837;28;20455;-77
2022/06/25 09:08:40;;;;;;;1.53;1.00;;;;;;;;;;5056510;28;20939;-76
2022/06/25 09:11:07;;;;;;;0.70;0.60;;;;;;;;;;5073006;28;20534;-75
2022/06/25 09:13:35;;;;;;;0.90;0.90;;;;;;;;;;5071986;28;20459;-75
2022/06/25 09:16:02;;;;;;;0.70;0.60;;;;;;;;;;5073090;28;20426;-76
2022/06/25 09:18:31;;;;;;;0.70;0.50;;;;;;;;;;5073558;28;20439;-77
2022/06/25 09:20:59;;;;;;;0.70;0.60;;;;;;;;;;5072838;28;20450;-75
2022/06/25 09:23:26;;;;;;;0.70;0.60;;;;;;;;;;5056731;28;20873;-76
2022/06/25 09:26:02;;;;;;;0.70;0.60;;;;;;;;;;5058298;28;20447;-76
2022/06/25 09:28:31;;;;;;;0.70;0.60;;;;;;;;;;5073557;28;20481;-76
2022/06/25 09:31:00;;;;;;;0.70;0.60;;;;;;;;;;5065214;28;20523;-75
2022/06/25 09:33:27;;;;;;;0.70;0.60;;;;;;;;;;5055009;28;20456;-75
2022/06/25 09:35:55;;;;;;;0.80;0.70;;;;;;;;;;5057306;28;20486;-74
2022/06/25 09:38:24;;;;;;;0.70;0.50;;;;;;;;;;5053956;28;20530;-74
2022/06/25 09:40:52;;;;;;;1.10;0.90;;;;;;;;;;5060039;28;20486;-74
2022/06/25 09:43:19;;;;;;;0.80;0.70;;;;;;;;;;5061994;28;20447;-77
2022/06/25 09:45:50;;;;;;;0.70;0.60;;;;;;;;;;5060280;28;20476;-74
2022/06/25 09:48:20;;;;;;;0.70;0.50;;;;;;;;;;5059484;28;20439;-75
2022/06/25 09:51:03;;;;;;;1.07;0.90;;;;;;;;;;5075722;28;20455;-74
2022/06/25 09:53:30;;;;;;;0.77;0.67;;;;;;;;;;5072936;28;20521;-74
2022/06/25 09:55:57;;;;;;;0.80;0.70;;;;;;;;;;5075619;28;20408;-75
2022/06/25 09:58:25;;;;;;;0.70;0.60;;;;;;;;;;5074975;28;20832;-78
2022/06/25 10:00:56;;;;;;;0.70;0.60;;;;;;;;;;5065795;28;20428;-76
2022/06/25 10:03:25;;;;;;;0.70;0.50;;;;;;;;;;5072985;28;20435;-75
2022/06/25 10:05:53;;;;;;;0.70;0.57;;;;;;;;;;5054673;28;20501;-75
2022/06/25 10:08:20;;;;;;;0.70;0.50;;;;;;;;;;5052854;28;20417;-75
2022/06/25 10:10:48;;;;;;;0.70;0.60;;;;;;;;;;5057246;28;20431;-74
2022/06/25 10:13:15;;;;;;;0.80;0.60;;;;;;;;;;5073178;28;20459;-75
2022/06/25 10:15:43;;;;;;;1.03;0.63;;;;;;;;;;5075357;28;20445;-77
2022/06/25 10:18:10;;;;;;;0.70;0.53;;;;;;;;;;5075770;28;20430;-75
2022/06/25 10:20:41;;;;;;;0.70;0.60;;;;;;;;;;5070791;28;20440;-77
2022/06/25 10:23:09;;;;;;;0.70;0.60;;;;;;;;;;5036678;28;20460;-75
2022/06/25 10:25:36;;;;;;;0.70;0.53;;;;;;;;;;5054896;28;20864;-75
2022/06/25 10:28:05;;;;;;;0.80;0.70;;;;;;;;;;5057831;28;20447;-74
2022/06/25 10:30:49;;;;;;;0.70;0.60;;;;;;;;;;5042717;28;20508;-75
2022/06/25 10:33:18;;;;;;;0.80;0.60;;;;;;;;;;5059811;28;20517;-74
2022/06/25 10:35:47;;;;;;;1.53;0.80;;;;;;;;;;5062762;28;20477;-75
2022/06/25 10:38:16;;;;;;;0.70;0.60;;;;;;;;;;5057518;28;20447;-75
2022/06/25 10:40:51;;;;;;;0.70;0.60;;;;;;;;;;5046786;28;20461;-75
2022/06/25 10:43:35;;;;;;;0.70;0.60;;;;;;;;;;5078418;28;20412;-75
2022/06/25 10:46:16;;;;;;;0.70;0.60;;;;;;;;;;5078389;28;20415;-75
2022/06/25 10:48:49;;;;;;;0.70;0.60;;;;;;;;;;5079109;28;20787;-75
2022/06/25 10:51:26;;;;;;;0.70;0.60;;;;;;;;;;5067888;28;20495;-76
2022/06/25 10:53:52;;;;;;;0.77;0.67;;;;;;;;;;5069222;28;20472;-75
2022/06/25 10:56:19;;;;;;;0.70;0.50;;;;;;;;;;5055322;28;20467;-75
2022/06/25 10:58:48;;;;;;;0.70;0.50;;;;;;;;;;5043475;28;20432;-75
2022/06/25 11:01:24;;;;;;;1.00;0.70;;;;;;;;;;5061010;28;20617;-76
2022/06/25 11:03:53;;;;;;;0.80;0.60;;;;;;;;;;5056351;28;20845;-76
2022/06/25 11:06:22;;;;;;;0.70;0.50;;;;;;;;;;5056386;28;20513;-78
2022/06/25 11:08:49;;;;;;;0.73;0.50;;;;;;;;;;5061812;28;20470;-78
2022/06/25 11:11:24;;;;;;;0.80;0.60;;;;;;;;;;5065553;28;20492;-77
2022/06/25 11:13:50;;;;;;;0.73;0.57;;;;;;;;;;5063013;28;20459;-77
2022/06/25 11:16:17;;;;;;;0.70;0.50;;;;;;;;;;5079879;28;20469;-76
2022/06/25 11:18:45;;;;;;;0.80;0.70;;;;;;;;;;5061309;28;20445;-77
2022/06/25 11:21:25;;;;;;;1.83;1.10;;;;;;;;;;5076202;28;20523;-77
2022/06/25 11:23:52;;;;;;;0.70;0.60;;;;;;;;;;5076333;28;20794;-75
2022/06/25 11:29:04;;;;;;;0.87;0.77;;;;;;;;;;5073535;28;20440;-75
2022/06/25 11:31:32;;;;;;;0.80;0.70;;;;;;;;;;5063461;28;20451;-75
2022/06/25 11:34:00;;;;;;;0.70;0.60;;;;;;;;;;5082299;28;20512;-77
2022/06/25 11:36:31;;;;;;;0.80;0.70;;;;;;;;;;5079967;28;20800;-76
2022/06/25 11:38:58;;;;;;;0.70;0.50;;;;;;;;;;5062582;28;20413;-76
2022/06/25 11:41:26;;;;;;;0.70;0.60;;;;;;;;;;5066881;28;20455;-77
2022/06/25 11:43:54;;;;;;;0.70;0.50;;;;;;;;;;5064089;28;20519;-77
2022/06/25 11:46:21;;;;;;;0.70;0.50;;;;;;;;;;5078354;28;20519;-77
2022/06/25 11:48:50;;;;;;;0.70;0.50;;;;;;;;;;5078887;28;20848;-77
2022/06/25 11:51:23;;;;;;;0.70;0.50;;;;;;;;;;5077245;28;20462;-78
2022/06/25 11:53:51;;;;;;;0.80;0.50;;;;;;;;;;5073335;28;20550;-78
2022/06/25 11:56:18;;;;;;;0.70;0.60;;;;;;;;;;5073789;28;20473;-77
2022/06/25 11:58:45;;;;;;;0.80;0.60;;;;;;;;;;5074129;28;21020;-76
2022/06/25 12:01:12;;;;;;;0.80;0.60;;;;;;;;;;5065346;28;20440;-79
2022/06/25 12:03:38;;;;;;;1.37;1.27;;;;;;;;;;5055970;28;20428;-76
2022/06/25 12:06:05;;;;;;;0.80;0.60;;;;;;;;;;5063244;28;20466;-77
2022/06/25 12:08:32;;;;;;;0.83;0.70;;;;;;;;;;5055280;28;20448;-76
2022/06/25 12:11:04;;;;;;;0.80;0.60;;;;;;;;;;5059484;28;20436;-79
2022/06/25 12:13:31;;;;;;;0.80;0.70;;;;;;;;;;5060308;28;20452;-79
2022/06/25 12:15:57;;;;;;;0.70;0.60;;;;;;;;;;5061292;28;20486;-78
2022/06/25 12:18:34;;;;;;;0.70;0.60;;;;;;;;;;5062959;28;20512;-77
2022/06/25 12:21:01;;;;;;;0.80;0.80;;;;;;;;;;5071116;28;20470;-78
2022/06/25 12:23:28;;;;;;;0.70;0.60;;;;;;;;;;5061445;28;20874;-77
2022/06/25 12:25:56;;;;;;;0.80;0.70;;;;;;;;;;5061087;28;20439;-77
2022/06/25 12:28:36;;;;;;;1.63;1.53;;;;;;;;;;5079043;28;20489;-77
2022/06/25 12:31:08;;;;;;;0.70;0.57;;;;;;;;;;5064661;28;20447;-77
2022/06/25 12:33:35;;;;;;;0.70;0.67;;;;;;;;;;5075190;28;20460;-77
2022/06/25 12:36:03;;;;;;;0.70;0.67;;;;;;;;;;5064803;28;20459;-76
2022/06/25 12:38:38;;;;;;;0.70;0.50;;;;;;;;;;5081068;28;20792;-77
2022/06/25 12:41:07;;;;;;;0.70;0.60;;;;;;;;;;5073823;28;20459;-77
2022/06/25 12:43:45;;;;;;;0.80;0.67;;;;;;;;;;5055167;28;20955;-76
2022/06/25 12:46:13;;;;;;;0.70;0.50;;;;;;;;;;5076385;28;20935;-76
2022/06/25 12:48:40;;;;;;;0.80;0.60;;;;;;;;;;5075102;28;20442;-77
2022/06/25 12:51:08;;;;;;;0.77;0.60;;;;;;;;;;5079044;28;20990;-77
2022/06/25 12:53:35;;;;;;;0.70;0.50;;;;;;;;;;5075897;28;20961;-77
2022/06/25 12:56:05;;;;;;;0.70;0.60;;;;;;;;;;5075222;28;20443;-77
2022/06/25 12:58:35;;;;;;;1.00;0.90;;;;;;;;;;5076456;28;20423;-77
2022/06/25 13:01:17;;;;;;;0.70;0.60;;;;;;;;;;5065601;28;20951;-78
2022/06/25 13:03:45;;;;;;;0.80;0.60;;;;;;;;;;5058108;28;20428;-76
2022/06/25 13:06:12;;;;;;;0.70;0.53;;;;;;;;;;5064961;28;20806;-78
2022/06/25 13:08:43;;;;;;;0.70;0.60;;;;;;;;;;5056580;28;20458;-77
2022/06/25 13:11:15;;;;;;;0.70;0.60;;;;;;;;;;5058108;28;20436;-78
2022/06/25 13:13:42;;;;;;;0.80;0.70;;;;;;;;;;5059083;28;20454;-78
2022/06/25 13:16:09;;;;;;;1.43;1.10;;;;;;;;;;5078005;28;20455;-78
2022/06/25 13:18:36;;;;;;;0.73;0.60;;;;;;;;;;5075881;28;20431;-78
2022/06/25 13:21:04;;;;;;;1.10;0.70;;;;;;;;;;5072299;28;20466;-79
2022/06/25 13:23:31;;;;;;;0.70;0.50;;;;;;;;;;5075969;28;20439;-79
2022/06/25 13:25:57;;;;;;;0.70;0.57;;;;;;;;;;5076551;28;20824;-79
2022/06/25 13:28:25;;;;;;;0.80;0.60;;;;;;;;;;5074618;28;20443;-78
2022/06/25 13:30:52;;;;;;;0.70;0.60;;;;;;;;;;5055924;28;20417;-79
2022/06/25 13:33:21;;;;;;;0.70;0.60;;;;;;;;;;5060153;28;20416;-79
2022/06/25 13:35:48;;;;;;;0.80;0.70;;;;;;;;;;5043583;28;20467;-78
2022/06/25 13:38:16;;;;;;;0.70;0.60;;;;;;;;;;5076900;28;20415;-79
2022/06/25 13:40:43;;;;;;;0.70;0.50;;;;;;;;;;5057736;28;21006;-79
2022/06/25 13:43:10;;;;;;;0.80;0.70;;;;;;;;;;5054491;28;20466;-79
2022/06/25 13:45:36;;;;;;;0.70;0.60;;;;;;;;;;5037813;28;20443;-79
2022/06/25 13:48:03;;;;;;;0.70;0.60;;;;;;;;;;5058033;28;20936;-78
2022/06/25 13:50:30;;;;;;;0.70;0.60;;;;;;;;;;5055929;28;20428;-79
2022/06/25 13:52:57;;;;;;;0.70;0.60;;;;;;;;;;5040678;28;20428;-79
2022/06/25 13:55:25;;;;;;;0.70;0.50;;;;;;;;;;5039039;28;20495;-78
2022/06/25 13:57:52;;;;;;;0.80;0.80;;;;;;;;;;5067060;28;20435;-79
2022/06/25 14:00:18;;;;;;;0.70;0.60;;;;;;;;;;5058043;28;20546;-77
2022/06/25 14:02:45;;;;;;;0.70;0.60;;;;;;;;;;5064188;28;20534;-75
2022/06/25 14:05:12;;;;;;;0.80;0.70;;;;;;;;;;5079201;28;20442;-79
2022/06/25 14:07:39;;;;;;;0.80;0.70;;;;;;;;;;5077364;28;20469;-76
2022/06/25 14:10:06;;;;;;;0.70;0.60;;;;;;;;;;5064785;28;20943;-78
2022/06/25 14:12:35;;;;;;;0.73;0.60;;;;;;;;;;5075358;28;20439;-77
2022/06/25 14:15:01;;;;;;;0.77;0.67;;;;;;;;;;5046717;28;20492;-78
2022/06/25 14:17:28;;;;;;;0.80;0.60;;;;;;;;;;5076808;28;20448;-78
2022/06/25 14:19:56;;;;;;;0.80;0.80;;;;;;;;;;5062210;28;20455;-77
2022/06/25 14:22:23;;;;;;;0.70;0.60;;;;;;;;;;5044814;28;20459;-78
2022/06/25 14:27:36;;;;;;;0.70;0.60;;;;;;;;;;5065867;28;20459;-78
2022/06/25 14:30:04;;;;;;;0.70;0.60;;;;;;;;;;5063489;28;20419;-78
2022/06/25 14:32:31;;;;;;;0.70;0.60;;;;;;;;;;5063330;28;20427;-78
2022/06/25 14:34:57;;;;;;;0.70;0.60;;;;;;;;;;5062035;28;20459;-77
2022/06/25 14:42:57;;;;;;;0.70;0.50;;;;;;;;;;5062450;28;20448;-77
2022/06/25 14:45:24;;;;;;;0.70;0.50;;;;;;;;;;5066553;28;20435;-79
2022/06/25 14:47:50;;;;;;;1.10;0.80;;;;;;;;;;5068511;28;20799;-77
2022/06/25 14:50:17;;;;;;;0.70;0.60;;;;;;;;;;5068308;28;20443;-78
2022/06/25 14:52:44;;;;;;;0.90;0.60;;;;;;;;;;5067916;28;20448;-78
2022/06/25 14:55:11;;;;;;;0.80;0.60;;;;;;;;;;5048741;28;20466;-78
2022/06/25 14:57:39;;;;;;;0.80;0.50;;;;;;;;;;5048851;28;20482;-78
2022/06/25 15:00:12;;;;;;;0.80;0.60;;;;;;;;;;5055146;28;20462;-79
2022/06/25 15:02:38;;;;;;;1.07;0.73;;;;;;;;;;5079296;28;20504;-77
2022/06/25 15:05:07;;;;;;;0.80;0.60;;;;;;;;;;5082986;28;20431;-79
2022/06/25 15:07:33;;;;;;;0.80;0.50;;;;;;;;;;5077354;28;20481;-80
2022/06/25 15:10:03;;;;;;;0.80;0.60;;;;;;;;;;5081108;28;20423;-79
2022/06/25 15:12:29;;;;;;;0.80;0.60;;;;;;;;;;5062898;28;20436;-78
2022/06/25 15:14:56;;;;;;;0.80;0.67;;;;;;;;;;5056145;28;20468;-79
2022/06/25 15:17:26;;;;;;;0.80;0.60;;;;;;;;;;5065771;28;20436;-78